Time;durP1;ratioP1;P1;durP2;ratioP2;P2;SDS_P1;SDS_P2;PMS_P1;PMS_P2;Temp;Humidity;BMP_temperature;BMP_pressure;BME280_temperature;BME280_humidity;BME280_pressure;Samples;Min_cycle;Max_cycle;Signal;HPM_P1;HPM_P2
2022/06/22 00:01:21;;;;;;;9.17;7.93;;;;;;;;;;4938291;29;20395;-67
2022/06/22 00:03:49;;;;;;;8.33;7.50;;;;;;;;;;4938439;29;20919;-71
2022/06/22 00:06:19;;;;;;;8.73;7.60;;;;;;;;;;4938344;29;20394;-72
2022/06/22 00:08:46;;;;;;;8.53;7.40;;;;;;;;;;4938155;29;21035;-67
2022/06/22 00:11:13;;;;;;;8.60;8.00;;;;;;;;;;4938282;29;20411;-69
2022/06/22 00:13:45;;;;;;;16.70;8.70;;;;;;;;;;4938136;29;20426;-69
2022/06/22 00:16:18;;;;;;;17.13;8.30;;;;;;;;;;4938158;29;20408;-67
2022/06/22 00:18:46;;;;;;;14.80;9.50;;;;;;;;;;4938382;29;20419;-71
2022/06/22 00:21:15;;;;;;;9.40;8.43;;;;;;;;;;4938387;29;20493;-71
2022/06/22 00:23:43;;;;;;;9.20;8.27;;;;;;;;;;4938001;29;20410;-67
2022/06/22 00:26:24;;;;;;;11.53;9.70;;;;;;;;;;4937948;29;20503;-72
2022/06/22 00:29:03;;;;;;;10.03;9.03;;;;;;;;;;4937755;29;21056;-70
2022/06/22 00:31:29;;;;;;;10.27;9.33;;;;;;;;;;4937794;29;20405;-78
2022/06/22 00:34:10;;;;;;;10.43;9.13;;;;;;;;;;4937630;29;20814;-70
2022/06/22 00:36:38;;;;;;;15.10;9.23;;;;;;;;;;4938066;29;20881;-72
2022/06/22 00:39:14;;;;;;;16.40;9.10;;;;;;;;;;4937686;29;20424;-77
2022/06/22 00:41:40;;;;;;;11.57;10.43;;;;;;;;;;4937578;29;20504;-72
2022/06/22 00:44:07;;;;;;;10.20;9.30;;;;;;;;;;4937580;29;20942;-74
2022/06/22 00:46:34;;;;;;;11.40;10.20;;;;;;;;;;4937594;29;20413;-74
2022/06/22 00:49:07;;;;;;;10.77;9.87;;;;;;;;;;4937396;29;20533;-71
2022/06/22 00:51:36;;;;;;;12.03;9.63;;;;;;;;;;4937453;29;20411;-75
2022/06/22 00:54:05;;;;;;;10.73;9.70;;;;;;;;;;4937415;29;20407;-73
2022/06/22 00:56:31;;;;;;;10.87;9.77;;;;;;;;;;4937447;29;20915;-71
2022/06/22 00:59:02;;;;;;;10.93;9.77;;;;;;;;;;4937308;29;20410;-72
2022/06/22 01:01:36;;;;;;;12.37;9.67;;;;;;;;;;4937330;29;20436;-68
2022/06/22 01:04:06;;;;;;;10.67;9.80;;;;;;;;;;4937292;29;20467;-67
2022/06/22 01:06:32;;;;;;;11.30;10.30;;;;;;;;;;4937195;29;20406;-69
2022/06/22 01:09:13;;;;;;;21.40;9.90;;;;;;;;;;4937107;29;20481;-67
2022/06/22 01:14:26;;;;;;;10.90;10.07;;;;;;;;;;4937068;29;20450;-71
2022/06/22 01:16:53;;;;;;;11.43;10.17;;;;;;;;;;4937065;29;20820;-69
2022/06/22 01:19:38;;;;;;;12.00;10.27;;;;;;;;;;4936958;29;20408;-73
2022/06/22 01:22:17;;;;;;;10.83;10.03;;;;;;;;;;4937004;29;20410;-74
2022/06/22 01:25:16;;;;;;;12.30;11.10;;;;;;;;;;4937101;29;20412;-67
2022/06/22 01:27:43;;;;;;;11.90;11.03;;;;;;;;;;4905137;29;20461;-69
2022/06/22 01:30:21;;;;;;;12.93;11.40;;;;;;;;;;4936767;29;20411;-70
2022/06/22 01:32:48;;;;;;;14.20;12.33;;;;;;;;;;4924249;29;20472;-69
2022/06/22 01:35:16;;;;;;;13.97;10.47;;;;;;;;;;4937075;29;20925;-73
2022/06/22 01:37:46;;;;;;;19.63;10.90;;;;;;;;;;4936852;29;20411;-72
2022/06/22 01:40:12;;;;;;;12.77;11.43;;;;;;;;;;4936661;29;20422;-67
2022/06/22 01:42:44;;;;;;;14.93;10.90;;;;;;;;;;4936635;29;20403;-67
2022/06/22 01:45:14;;;;;;;16.07;12.30;;;;;;;;;;4936608;29;20463;-69
2022/06/22 01:47:48;;;;;;;13.23;11.83;;;;;;;;;;4936388;29;20801;-72
2022/06/22 01:50:18;;;;;;;14.37;12.53;;;;;;;;;;4936580;29;20902;-71
2022/06/22 01:52:51;;;;;;;14.17;12.77;;;;;;;;;;4936552;29;20418;-75
2022/06/22 01:55:33;;;;;;;14.37;12.23;;;;;;;;;;4936426;29;20426;-71
2022/06/22 01:58:19;;;;;;;18.83;11.33;;;;;;;;;;4936532;29;20469;-73
2022/06/22 02:00:53;;;;;;;19.73;12.73;;;;;;;;;;4936267;29;20442;-74
2022/06/22 02:03:21;;;;;;;14.43;12.23;;;;;;;;;;4936266;29;20429;-69
2022/06/22 02:05:47;;;;;;;19.57;12.63;;;;;;;;;;4936347;29;20878;-76
2022/06/22 02:08:17;;;;;;;14.43;12.70;;;;;;;;;;4936174;29;20501;-66
2022/06/22 02:10:46;;;;;;;13.87;12.67;;;;;;;;;;4936205;29;20481;-77
2022/06/22 02:13:16;;;;;;;12.67;11.57;;;;;;;;;;4936259;29;20496;-70
2022/06/22 02:15:55;;;;;;;12.67;11.10;;;;;;;;;;4936293;29;20912;-68
2022/06/22 02:18:43;;;;;;;11.60;10.80;;;;;;;;;;4936169;29;20770;-74
2022/06/22 02:21:18;;;;;;;11.37;10.23;;;;;;;;;;4936216;29;20417;-73
2022/06/22 02:23:45;;;;;;;13.10;10.80;;;;;;;;;;4938998;29;20425;-69
2022/06/22 02:26:23;;;;;;;11.47;10.27;;;;;;;;;;4940175;29;20420;-74
2022/06/22 02:28:50;;;;;;;10.17;9.53;;;;;;;;;;4939956;29;20472;-67
2022/06/22 02:31:17;;;;;;;11.20;9.43;;;;;;;;;;4940358;29;20412;-69
2022/06/22 02:33:46;;;;;;;12.67;11.60;;;;;;;;;;4939954;29;20475;-71
2022/06/22 02:36:13;;;;;;;11.50;10.47;;;;;;;;;;4939922;29;20411;-73
2022/06/22 02:38:41;;;;;;;11.00;9.87;;;;;;;;;;4940081;29;20405;-69
2022/06/22 02:46:38;;;;;;;12.50;11.20;;;;;;;;;;4939772;29;20409;-77
2022/06/22 02:49:11;;;;;;;11.93;10.73;;;;;;;;;;4939584;29;20475;-75
2022/06/22 02:51:40;;;;;;;11.27;10.27;;;;;;;;;;4939763;29;20879;-72
2022/06/22 02:54:07;;;;;;;15.37;10.93;;;;;;;;;;4939613;29;20413;-66
2022/06/22 02:56:36;;;;;;;12.07;10.93;;;;;;;;;;4939528;29;20413;-75
2022/06/22 02:59:02;;;;;;;13.83;12.57;;;;;;;;;;4939584;29;20410;-74
2022/06/22 03:01:30;;;;;;;12.43;11.03;;;;;;;;;;4939425;29;20401;-68
2022/06/22 03:04:03;;;;;;;17.37;11.03;;;;;;;;;;4939525;29;20490;-75
2022/06/22 03:06:31;;;;;;;21.60;13.10;;;;;;;;;;4939491;29;20497;-78
2022/06/22 03:09:01;;;;;;;14.73;13.37;;;;;;;;;;4939365;29;21149;-73
2022/06/22 03:11:28;;;;;;;12.90;11.70;;;;;;;;;;4939271;29;20424;-73
2022/06/22 03:13:56;;;;;;;14.97;12.83;;;;;;;;;;4939203;29;20417;-74
2022/06/22 03:16:27;;;;;;;14.90;13.70;;;;;;;;;;4939242;29;20418;-77
2022/06/22 03:18:54;;;;;;;19.47;13.60;;;;;;;;;;4939275;29;20416;-69
2022/06/22 03:21:20;;;;;;;21.53;14.70;;;;;;;;;;4940254;29;20419;-71
2022/06/22 03:23:51;;;;;;;17.33;15.53;;;;;;;;;;4939152;29;20423;-74
2022/06/22 03:26:26;;;;;;;19.20;17.03;;;;;;;;;;4939436;29;20808;-68
2022/06/22 03:28:56;;;;;;;25.60;20.27;;;;;;;;;;4939025;29;20474;-70
2022/06/22 03:31:25;;;;;;;22.60;20.27;;;;;;;;;;4921843;29;20812;-75
2022/06/22 03:33:53;;;;;;;21.23;19.13;;;;;;;;;;4938610;29;20466;-76
2022/06/22 03:36:21;;;;;;;27.10;20.60;;;;;;;;;;4938977;29;20511;-71
2022/06/22 03:38:59;;;;;;;21.00;19.10;;;;;;;;;;4938826;29;20478;-73
2022/06/22 03:41:27;;;;;;;23.87;20.77;;;;;;;;;;4921696;29;20925;-85
2022/06/22 03:44:00;;;;;;;30.70;21.47;;;;;;;;;;4938957;29;20422;-75
2022/06/22 03:46:29;;;;;;;26.67;23.07;;;;;;;;;;4938648;29;20418;-77
2022/06/22 03:49:02;;;;;;;26.80;20.73;;;;;;;;;;4939038;29;20470;-70
2022/06/22 03:51:31;;;;;;;26.40;23.00;;;;;;;;;;4939361;29;20446;-72
2022/06/22 03:54:03;;;;;;;24.80;21.10;;;;;;;;;;4938729;29;20414;-73
2022/06/22 03:56:31;;;;;;;27.53;23.63;;;;;;;;;;4938690;29;20500;-77
2022/06/22 03:58:59;;;;;;;23.63;17.03;;;;;;;;;;4938526;29;20941;-78
2022/06/22 04:01:25;;;;;;;14.67;12.60;;;;;;;;;;4938478;29;20807;-72
2022/06/22 04:03:53;;;;;;;19.53;11.37;;;;;;;;;;4938487;29;20418;-69
2022/06/22 04:06:25;;;;;;;24.00;12.30;;;;;;;;;;4938594;29;20887;-73
2022/06/22 04:08:51;;;;;;;16.43;11.00;;;;;;;;;;4938319;29;20610;-70
2022/06/22 04:11:17;;;;;;;21.17;12.20;;;;;;;;;;4938301;29;20793;-75
2022/06/22 04:13:43;;;;;;;21.60;12.43;;;;;;;;;;4938239;29;20510;-84
2022/06/22 04:16:19;;;;;;;17.80;11.40;;;;;;;;;;4938155;29;20406;-79
2022/06/22 04:18:53;;;;;;;26.03;12.47;;;;;;;;;;4938152;29;20439;-81
2022/06/22 04:21:31;;;;;;;33.33;23.20;;;;;;;;;;4938405;29;20413;-73
2022/06/22 04:23:59;;;;;;;27.67;12.47;;;;;;;;;;4938115;29;20409;-84
2022/06/22 04:26:34;;;;;;;21.40;13.53;;;;;;;;;;4937975;29;20863;-76
2022/06/22 04:29:04;;;;;;;23.17;16.50;;;;;;;;;;4937868;29;20480;-86
2022/06/22 04:31:33;;;;;;;21.87;13.23;;;;;;;;;;4937923;29;20502;-82
2022/06/22 04:34:07;;;;;;;24.20;12.20;;;;;;;;;;4937679;29;20517;-83
2022/06/22 04:36:37;;;;;;;23.00;12.90;;;;;;;;;;4937792;29;20449;-66
2022/06/22 04:39:15;;;;;;;26.53;13.97;;;;;;;;;;4937834;29;20452;-70
2022/06/22 04:41:42;;;;;;;21.80;12.43;;;;;;;;;;4937889;29;20464;-65
2022/06/22 04:44:11;;;;;;;19.43;13.10;;;;;;;;;;4920636;29;20437;-66
2022/06/22 04:46:39;;;;;;;21.40;13.23;;;;;;;;;;4937029;29;20837;-66
2022/06/22 04:49:08;;;;;;;17.07;11.70;;;;;;;;;;4937849;29;20513;-66
2022/06/22 04:51:36;;;;;;;16.77;13.57;;;;;;;;;;4937677;29;20921;-66
2022/06/22 04:54:21;;;;;;;18.97;12.30;;;;;;;;;;4938473;29;20415;-66
2022/06/22 04:56:49;;;;;;;20.63;12.90;;;;;;;;;;4937848;29;20394;-66
2022/06/22 04:59:16;;;;;;;15.97;13.40;;;;;;;;;;4937575;29;20441;-65
2022/06/22 05:01:45;;;;;;;15.33;12.57;;;;;;;;;;4937401;29;20413;-66
2022/06/22 05:04:16;;;;;;;21.30;14.77;;;;;;;;;;4937319;29;20403;-65
2022/06/22 05:07:03;;;;;;;17.70;13.33;;;;;;;;;;4937331;29;20890;-64
2022/06/22 05:09:33;;;;;;;16.60;13.50;;;;;;;;;;4937371;29;20482;-63
2022/06/22 05:12:00;;;;;;;19.70;14.00;;;;;;;;;;4937489;29;20422;-63
2022/06/22 05:14:28;;;;;;;21.60;14.30;;;;;;;;;;4937112;29;20419;-63
2022/06/22 05:17:06;;;;;;;17.83;11.90;;;;;;;;;;4937080;29;20415;-64
2022/06/22 05:19:36;;;;;;;21.03;14.53;;;;;;;;;;4936966;29;20410;-64
2022/06/22 05:22:02;;;;;;;19.40;11.70;;;;;;;;;;4937241;29;20838;-66
2022/06/22 05:24:33;;;;;;;13.27;10.80;;;;;;;;;;4936820;29;20415;-64
2022/06/22 05:27:01;;;;;;;20.33;11.67;;;;;;;;;;4937012;29;20413;-67
2022/06/22 05:29:36;;;;;;;15.60;11.53;;;;;;;;;;4936613;29;21062;-74
2022/06/22 05:32:04;;;;;;;15.63;10.50;;;;;;;;;;4936865;29;20407;-63
2022/06/22 05:34:32;;;;;;;13.73;11.13;;;;;;;;;;4936745;29;20435;-63
2022/06/22 05:37:18;;;;;;;15.47;11.60;;;;;;;;;;4936747;29;20415;-64
2022/06/22 05:39:44;;;;;;;14.97;12.90;;;;;;;;;;4936315;29;20454;-63
2022/06/22 05:42:11;;;;;;;23.30;13.40;;;;;;;;;;4936648;29;20499;-70
2022/06/22 05:44:38;;;;;;;17.20;12.50;;;;;;;;;;4936560;29;20480;-63
2022/06/22 05:47:05;;;;;;;16.50;12.40;;;;;;;;;;4936535;29;20429;-70
2022/06/22 05:49:57;;;;;;;14.73;13.23;;;;;;;;;;4936514;29;20973;-65
2022/06/22 05:52:32;;;;;;;13.83;12.53;;;;;;;;;;4914509;29;20856;-65
2022/06/22 05:55:00;;;;;;;13.73;12.20;;;;;;;;;;4936391;29;20466;-68
2022/06/22 05:57:35;;;;;;;14.67;12.90;;;;;;;;;;4936613;29;20453;-74
2022/06/22 06:00:05;;;;;;;15.17;12.97;;;;;;;;;;4936364;29;20402;-77
2022/06/22 06:02:34;;;;;;;19.23;12.10;;;;;;;;;;4936469;29;20447;-71
2022/06/22 06:05:05;;;;;;;20.73;13.57;;;;;;;;;;4936334;29;20423;-77
2022/06/22 06:07:38;;;;;;;15.80;13.80;;;;;;;;;;4936325;29;20414;-73
2022/06/22 06:10:06;;;;;;;18.00;14.23;;;;;;;;;;4936217;29;20962;-76
2022/06/22 06:12:36;;;;;;;14.43;13.03;;;;;;;;;;4936498;29;20418;-63
2022/06/22 06:15:04;;;;;;;21.10;15.00;;;;;;;;;;4936311;29;20427;-63
2022/06/22 06:17:29;;;;;;;17.70;13.80;;;;;;;;;;4936160;29;20770;-65
2022/06/22 06:19:56;;;;;;;14.77;13.13;;;;;;;;;;4936234;29;20412;-63
2022/06/22 06:22:23;;;;;;;13.60;12.30;;;;;;;;;;4936153;29;20510;-64
2022/06/22 06:27:39;;;;;;;18.90;12.87;;;;;;;;;;4936368;29;20454;-65
2022/06/22 06:30:34;;;;;;;19.37;14.23;;;;;;;;;;4936041;29;20471;-63
2022/06/22 06:33:04;;;;;;;14.50;13.10;;;;;;;;;;4913596;29;20827;-63
2022/06/22 06:35:30;;;;;;;17.77;11.47;;;;;;;;;;4918853;29;20433;-64
2022/06/22 06:38:15;;;;;;;16.33;12.47;;;;;;;;;;4936001;29;20499;-64
2022/06/22 06:40:44;;;;;;;13.50;12.07;;;;;;;;;;4936144;29;20426;-63
2022/06/22 06:43:24;;;;;;;14.70;11.20;;;;;;;;;;4918786;29;20800;-63
2022/06/22 06:45:51;;;;;;;15.07;12.37;;;;;;;;;;4936186;29;20426;-63
2022/06/22 06:48:19;;;;;;;13.37;12.10;;;;;;;;;;4935934;29;20532;-66
2022/06/22 06:50:48;;;;;;;13.07;11.60;;;;;;;;;;4935963;29;20414;-64
2022/06/22 06:53:32;;;;;;;14.80;10.70;;;;;;;;;;4935896;29;20430;-64
2022/06/22 06:56:04;;;;;;;11.00;9.87;;;;;;;;;;4936067;29;20411;-64
2022/06/22 06:58:41;;;;;;;16.90;8.90;;;;;;;;;;4935938;29;20412;-63
2022/06/22 07:01:10;;;;;;;10.90;8.97;;;;;;;;;;4936081;29;20412;-65
2022/06/22 07:03:38;;;;;;;20.60;8.70;;;;;;;;;;4935900;29;20419;-67
2022/06/22 07:06:05;;;;;;;12.23;9.17;;;;;;;;;;4935807;29;20907;-65
2022/06/22 07:08:38;;;;;;;14.73;9.37;;;;;;;;;;4936337;29;20473;-65
2022/06/22 07:11:09;;;;;;;17.70;8.40;;;;;;;;;;4939304;29;20422;-65
2022/06/22 07:13:55;;;;;;;12.70;8.40;;;;;;;;;;4939320;29;20502;-65
2022/06/22 07:16:22;;;;;;;11.77;8.10;;;;;;;;;;4939304;29;20407;-64
2022/06/22 07:18:57;;;;;;;13.40;9.37;;;;;;;;;;4939210;29;20569;-65
2022/06/22 07:21:38;;;;;;;16.93;9.13;;;;;;;;;;4939083;29;20488;-67
2022/06/22 07:24:13;;;;;;;13.50;9.57;;;;;;;;;;4939067;29;20425;-66
2022/06/22 07:26:50;;;;;;;10.80;9.70;;;;;;;;;;4939039;29;20390;-65
2022/06/22 07:29:34;;;;;;;13.97;10.70;;;;;;;;;;4938793;29;20491;-65
2022/06/22 07:32:20;;;;;;;13.00;11.40;;;;;;;;;;4938977;29;20429;-65
2022/06/22 07:34:58;;;;;;;13.33;11.97;;;;;;;;;;4928985;29;20533;-65
2022/06/22 07:37:27;;;;;;;11.33;9.87;;;;;;;;;;4938800;29;21057;-65
2022/06/22 07:39:56;;;;;;;10.40;9.60;;;;;;;;;;4938781;29;20408;-71
2022/06/22 07:42:22;;;;;;;12.93;9.43;;;;;;;;;;4938530;29;20400;-65
2022/06/22 07:44:48;;;;;;;10.37;9.30;;;;;;;;;;4938748;29;20760;-64
2022/06/22 07:47:21;;;;;;;17.83;10.40;;;;;;;;;;4938505;29;20412;-77
2022/06/22 07:49:57;;;;;;;12.40;9.30;;;;;;;;;;4938427;29;20610;-72
2022/06/22 07:52:27;;;;;;;11.13;9.23;;;;;;;;;;4938419;29;20553;-78
2022/06/22 07:55:07;;;;;;;10.90;9.50;;;;;;;;;;4938632;29;20863;-74
2022/06/22 07:57:34;;;;;;;22.53;9.63;;;;;;;;;;4938321;29;20406;-77
2022/06/22 08:00:03;;;;;;;18.27;9.77;;;;;;;;;;4937768;29;20407;-69
2022/06/22 08:02:36;;;;;;;19.73;9.77;;;;;;;;;;4938140;29;20429;-64
2022/06/22 08:05:07;;;;;;;12.30;9.80;;;;;;;;;;4937595;29;20506;-65
2022/06/22 08:07:47;;;;;;;18.87;9.80;;;;;;;;;;4937952;29;20408;-74
2022/06/22 08:10:26;;;;;;;13.07;10.73;;;;;;;;;;4920800;29;20941;-65
2022/06/22 08:13:11;;;;;;;11.50;10.00;;;;;;;;;;4937676;29;20415;-65
2022/06/22 08:15:57;;;;;;;23.13;11.10;;;;;;;;;;4937960;29;20776;-65
2022/06/22 08:18:23;;;;;;;14.53;10.10;;;;;;;;;;4936912;29;20423;-64
2022/06/22 08:20:51;;;;;;;11.90;10.80;;;;;;;;;;4936747;29;20480;-65
2022/06/22 08:23:19;;;;;;;12.50;11.40;;;;;;;;;;4937925;29;20464;-63
2022/06/22 08:25:46;;;;;;;13.53;10.03;;;;;;;;;;4937293;29;20415;-65
2022/06/22 08:28:14;;;;;;;11.47;10.20;;;;;;;;;;4937217;29;20966;-65
2022/06/22 08:30:40;;;;;;;17.33;10.50;;;;;;;;;;4937282;29;20420;-69
2022/06/22 08:33:08;;;;;;;16.40;10.00;;;;;;;;;;4937566;29;20922;-66
2022/06/22 08:35:41;;;;;;;15.87;10.50;;;;;;;;;;4937624;29;20422;-67
2022/06/22 08:38:13;;;;;;;16.73;10.10;;;;;;;;;;4937664;29;20402;-65
2022/06/22 08:40:39;;;;;;;19.60;11.00;;;;;;;;;;4937529;29;20415;-68
2022/06/22 08:43:05;;;;;;;16.73;10.43;;;;;;;;;;4937878;29;20484;-65
2022/06/22 08:45:31;;;;;;;15.90;10.57;;;;;;;;;;4937638;29;20477;-64
2022/06/22 08:48:00;;;;;;;15.63;11.57;;;;;;;;;;4937661;29;20493;-64
2022/06/22 08:50:38;;;;;;;14.80;12.40;;;;;;;;;;4937702;29;20429;-66
2022/06/22 08:53:19;;;;;;;24.90;11.03;;;;;;;;;;4937750;29;20840;-66
2022/06/22 08:55:48;;;;;;;13.77;11.60;;;;;;;;;;4920379;29;20849;-64
2022/06/22 08:58:33;;;;;;;17.97;10.87;;;;;;;;;;4937440;29;20420;-64
2022/06/22 09:01:03;;;;;;;14.50;11.70;;;;;;;;;;4937508;29;20416;-64
2022/06/22 09:03:28;;;;;;;18.20;10.60;;;;;;;;;;4937271;29;20473;-64
2022/06/22 09:06:13;;;;;;;16.07;12.27;;;;;;;;;;4937543;29;20416;-68
2022/06/22 09:08:52;;;;;;;22.80;11.70;;;;;;;;;;4937356;29;20828;-64
2022/06/22 09:11:30;;;;;;;16.93;11.80;;;;;;;;;;4937083;29;20405;-65
2022/06/22 09:13:59;;;;;;;17.83;11.90;;;;;;;;;;4937139;29;20495;-64
2022/06/22 09:16:44;;;;;;;15.03;11.40;;;;;;;;;;4937002;29;20473;-64
2022/06/22 09:19:10;;;;;;;12.90;10.83;;;;;;;;;;4936910;29;20414;-65
2022/06/22 09:21:44;;;;;;;19.80;11.40;;;;;;;;;;4937001;29;20473;-64
2022/06/22 09:24:21;;;;;;;24.87;11.10;;;;;;;;;;4937221;29;20419;-65
2022/06/22 09:27:05;;;;;;;19.23;11.90;;;;;;;;;;4936908;29;20895;-64
2022/06/22 09:29:46;;;;;;;22.83;10.47;;;;;;;;;;4936664;29;20481;-64
2022/06/22 09:32:31;;;;;;;24.60;10.13;;;;;;;;;;4936251;29;20955;-66
2022/06/22 09:35:23;;;;;;;28.33;10.27;;;;;;;;;;4936037;29;20789;-65
2022/06/22 09:38:08;;;;;;;26.80;10.70;;;;;;;;;;4913930;29;20524;-67
2022/06/22 09:40:50;;;;;;;14.03;9.87;;;;;;;;;;4935788;29;20415;-74
2022/06/22 09:43:16;;;;;;;14.63;10.50;;;;;;;;;;4935899;29;20427;-73
2022/06/22 09:45:42;;;;;;;17.40;10.10;;;;;;;;;;4935859;29;20470;-77
2022/06/22 09:48:20;;;;;;;18.00;9.87;;;;;;;;;;4935878;29;20424;-75
2022/06/22 09:50:48;;;;;;;19.10;10.70;;;;;;;;;;4935736;29;20431;-73
2022/06/22 09:53:14;;;;;;;18.53;10.70;;;;;;;;;;4935741;29;20412;-73
2022/06/22 09:58:58;;;;;;;16.57;10.40;;;;;;;;;;4935663;29;20480;-73
2022/06/22 10:01:27;;;;;;;22.67;10.00;;;;;;;;;;4935643;29;20437;-66
2022/06/22 10:03:53;;;;;;;18.90;10.13;;;;;;;;;;4935585;29;20994;-65
2022/06/22 10:06:31;;;;;;;16.80;10.87;;;;;;;;;;4935572;29;20515;-67
2022/06/22 10:09:00;;;;;;;23.77;9.80;;;;;;;;;;4935471;29;20563;-67
2022/06/22 10:12:05;;;;;;;13.30;7.93;;;;;;;;;;4935474;29;20460;-64
2022/06/22 10:14:31;;;;;;;12.40;8.57;;;;;;;;;;4876819;29;20439;-69
2022/06/22 10:17:00;;;;;;;17.13;9.50;;;;;;;;;;4876888;29;20462;-71
2022/06/22 10:19:36;;;;;;;16.57;8.87;;;;;;;;;;4905730;29;20435;-73
2022/06/22 10:22:13;;;;;;;22.43;8.70;;;;;;;;;;4935454;29;20412;-74
2022/06/22 10:24:38;;;;;;;17.00;6.83;;;;;;;;;;4935590;29;20503;-75
2022/06/22 10:27:21;;;;;;;17.03;7.80;;;;;;;;;;4935382;29;20840;-71
2022/06/22 10:30:06;;;;;;;14.30;6.93;;;;;;;;;;4935495;29;20471;-74
2022/06/22 10:32:40;;;;;;;15.03;6.60;;;;;;;;;;4899416;29;1055457;-74
2022/06/22 10:35:15;;;;;;;12.07;6.50;;;;;;;;;;4936193;29;20172;-70
2022/06/22 10:37:50;;;;;;;14.30;5.40;;;;;;;;;;4936022;29;20916;-75
2022/06/22 10:46:34;;;;;;;18.87;7.10;;;;;;;;;;4940251;29;20425;-65
2022/06/22 10:49:18;;;;;;;14.80;9.00;;;;;;;;;;4939762;29;20464;-65
2022/06/22 10:52:04;;;;;;;19.43;8.50;;;;;;;;;;4939812;29;20959;-64
2022/06/22 10:54:41;;;;;;;20.90;9.13;;;;;;;;;;4910403;29;20451;-72
2022/06/22 10:57:25;;;;;;;14.37;8.57;;;;;;;;;;4939611;29;20412;-67
2022/06/22 11:00:05;;;;;;;26.13;9.23;;;;;;;;;;4939620;29;20907;-69
2022/06/22 11:02:38;;;;;;;21.57;10.27;;;;;;;;;;4939797;29;20507;-70
2022/06/22 11:05:13;;;;;;;13.30;9.30;;;;;;;;;;4939591;29;20952;-71
2022/06/22 11:07:39;;;;;;;22.00;9.50;;;;;;;;;;4941165;29;20404;-73
2022/06/22 11:10:24;;;;;;;23.70;8.93;;;;;;;;;;4947628;29;21066;-64
2022/06/22 11:12:53;;;;;;;23.60;10.20;;;;;;;;;;4949069;29;20409;-73
2022/06/22 11:15:38;;;;;;;19.13;9.83;;;;;;;;;;4950220;29;20407;-67
2022/06/22 11:18:23;;;;;;;15.77;8.00;;;;;;;;;;4947926;29;20498;-68
2022/06/22 11:20:53;;;;;;;15.37;8.00;;;;;;;;;;4946442;29;20420;-65
2022/06/22 11:23:44;;;;;;;16.30;7.90;;;;;;;;;;4948034;29;20408;-79
2022/06/22 11:32:09;;;;;;;13.33;7.10;;;;;;;;;;4953891;29;20426;-77
2022/06/22 11:34:45;;;;;;;19.83;7.40;;;;;;;;;;4949428;29;20500;-74
2022/06/22 11:37:34;;;;;;;10.73;6.20;;;;;;;;;;4939399;29;20422;-73
2022/06/22 11:40:01;;;;;;;12.33;6.90;;;;;;;;;;4931330;29;20429;-67
2022/06/22 11:42:28;;;;;;;15.87;6.60;;;;;;;;;;4938826;29;20545;-70
2022/06/22 11:48:03;;;;;;;18.40;7.53;;;;;;;;;;4938692;29;20409;-67
2022/06/22 11:50:48;;;;;;;14.03;6.90;;;;;;;;;;4938764;29;21011;-71
2022/06/22 11:53:14;;;;;;;13.43;7.00;;;;;;;;;;4938668;29;20424;-74
2022/06/22 11:55:43;;;;;;;14.07;5.90;;;;;;;;;;4938558;29;20417;-69
2022/06/22 11:58:15;;;;;;;19.47;7.33;;;;;;;;;;4938564;29;20405;-68
2022/06/22 12:01:01;;;;;;;14.07;6.80;;;;;;;;;;4938547;29;20407;-68
2022/06/22 12:03:30;;;;;;;16.43;7.03;;;;;;;;;;4938417;29;20469;-71
2022/06/22 12:06:02;;;;;;;19.73;5.80;;;;;;;;;;4938460;29;20769;-71
2022/06/22 12:08:47;;;;;;;27.70;7.20;;;;;;;;;;4938294;29;20528;-65
2022/06/22 12:11:13;;;;;;;11.17;5.50;;;;;;;;;;4938222;29;20503;-68
2022/06/22 12:16:52;;;;;;;12.03;5.13;;;;;;;;;;4938315;29;20499;-65
2022/06/22 12:19:29;;;;;;;15.03;5.93;;;;;;;;;;4938187;29;20423;-66
2022/06/22 12:22:03;;;;;;;10.70;5.00;;;;;;;;;;4938233;29;20871;-65
2022/06/22 12:24:49;;;;;;;13.57;4.57;;;;;;;;;;4938094;29;20422;-68
2022/06/22 12:27:36;;;;;;;14.23;4.83;;;;;;;;;;4938005;29;20504;-66
2022/06/22 12:30:09;;;;;;;10.73;4.40;;;;;;;;;;4938049;29;20483;-67
2022/06/22 12:32:39;;;;;;;7.97;4.53;;;;;;;;;;4937804;29;20474;-67
2022/06/22 12:35:36;;;;;;;8.20;5.30;;;;;;;;;;4937731;29;20914;-69
2022/06/22 12:38:22;;;;;;;10.77;3.13;;;;;;;;;;4926195;29;20859;-67
2022/06/22 12:40:57;;;;;;;14.90;4.20;;;;;;;;;;4937611;29;20892;-65
2022/06/22 12:43:23;;;;;;;11.00;3.90;;;;;;;;;;4937666;29;20938;-65
2022/06/22 12:45:52;;;;;;;15.93;5.03;;;;;;;;;;4937915;29;20429;-68
2022/06/22 12:48:37;;;;;;;6.83;3.53;;;;;;;;;;4937590;29;20393;-65
2022/06/22 12:51:08;;;;;;;16.20;4.83;;;;;;;;;;4937842;29;20410;-67
2022/06/22 12:53:38;;;;;;;19.93;5.20;;;;;;;;;;4937564;29;20412;-71
2022/06/22 12:56:15;;;;;;;15.23;4.70;;;;;;;;;;4937795;29;20411;-65
2022/06/22 12:58:41;;;;;;;8.73;3.47;;;;;;;;;;4937488;29;20404;-67
2022/06/22 13:01:07;;;;;;;9.63;3.50;;;;;;;;;;4937409;29;20922;-65
2022/06/22 13:03:37;;;;;;;19.53;4.10;;;;;;;;;;4936443;29;20423;-65
2022/06/22 13:06:03;;;;;;;10.40;3.67;;;;;;;;;;4935545;29;20413;-67
2022/06/22 13:08:29;;;;;;;5.63;3.47;;;;;;;;;;4936004;29;20561;-66
2022/06/22 13:11:00;;;;;;;8.20;3.10;;;;;;;;;;4936462;29;20507;-67
2022/06/22 13:13:29;;;;;;;5.40;2.80;;;;;;;;;;4937068;29;20421;-67
2022/06/22 13:15:58;;;;;;;4.13;2.90;;;;;;;;;;4937432;29;20767;-67
2022/06/22 13:18:24;;;;;;;8.73;3.07;;;;;;;;;;4937134;29;20414;-69
2022/06/22 13:20:59;;;;;;;10.77;3.30;;;;;;;;;;4937089;29;20394;-72
2022/06/22 13:24:02;;;;;;;12.30;3.00;;;;;;;;;;4936964;29;20446;-66
2022/06/22 13:26:31;;;;;;;8.43;2.93;;;;;;;;;;4936993;29;20772;-66
2022/06/22 13:29:20;;;;;;;10.63;2.73;;;;;;;;;;4936820;29;20584;-66
2022/06/22 13:31:48;;;;;;;3.93;2.70;;;;;;;;;;4936380;29;20519;-67
2022/06/22 13:34:22;;;;;;;6.70;3.33;;;;;;;;;;4936922;29;20436;-64
2022/06/22 13:36:57;;;;;;;14.23;3.17;;;;;;;;;;4936778;29;20406;-68
2022/06/22 13:39:26;;;;;;;18.83;3.00;;;;;;;;;;4936725;29;20406;-66
2022/06/22 13:42:03;;;;;;;11.47;3.27;;;;;;;;;;4936620;29;20899;-70
2022/06/22 13:44:50;;;;;;;11.10;3.40;;;;;;;;;;4936677;29;20419;-66
2022/06/22 13:47:16;;;;;;;7.40;2.70;;;;;;;;;;4936623;29;20499;-71
2022/06/22 13:49:58;;;;;;;14.27;3.40;;;;;;;;;;4936450;29;20566;-70
2022/06/22 13:52:35;;;;;;;10.13;3.33;;;;;;;;;;4936660;29;20408;-68
2022/06/22 13:55:13;;;;;;;10.50;2.97;;;;;;;;;;4936488;29;20408;-68
2022/06/22 13:57:51;;;;;;;11.83;3.37;;;;;;;;;;4936594;29;20416;-77
2022/06/22 14:00:24;;;;;;;12.93;2.80;;;;;;;;;;4936485;29;20411;-76
2022/06/22 14:02:58;;;;;;;8.27;3.60;;;;;;;;;;4936425;29;20430;-77
2022/06/22 14:05:30;;;;;;;11.27;3.33;;;;;;;;;;4936702;29;20409;-76
2022/06/22 14:08:05;;;;;;;3.90;3.00;;;;;;;;;;4936481;29;20405;-73
